createdAt,value
2022-09-15T00:00:08.628Z,100.00
2022-09-15T00:02:35.297Z,100.00
2022-09-15T00:05:01.902Z,100.00
2022-09-15T00:07:28.457Z,100.00
2022-09-15T00:09:55.410Z,100.00
2022-09-15T00:12:21.990Z,100.00
2022-09-15T00:14:48.581Z,100.00
2022-09-15T00:17:15.159Z,100.00
2022-09-15T00:19:41.668Z,100.00
2022-09-15T00:22:08.174Z,100.00
2022-09-15T00:24:35.937Z,100.00
2022-09-15T00:27:02.484Z,100.00
2022-09-15T00:29:29.096Z,100.00
2022-09-15T00:31:55.583Z,100.00
2022-09-15T00:34:22.297Z,100.00
2022-09-15T00:36:48.762Z,100.00
2022-09-15T00:39:15.306Z,100.00
2022-09-15T00:41:42.998Z,100.00
2022-09-15T00:44:37.067Z,100.00
2022-09-15T00:47:21.838Z,100.00
2022-09-15T00:49:53.927Z,100.00
2022-09-15T00:52:37.497Z,100.00
2022-09-15T00:55:10.211Z,100.00
2022-09-15T00:57:45.823Z,100.00
2022-09-15T01:00:18.440Z,100.00
2022-09-15T01:02:47.346Z,100.00
2022-09-15T01:05:17.564Z,100.00
2022-09-15T01:07:50.789Z,100.00
2022-09-15T01:10:25.820Z,100.00
2022-09-15T01:12:57.049Z,100.00
2022-09-15T01:15:29.395Z,100.00
2022-09-15T01:18:25.013Z,100.00
2022-09-15T01:21:04.376Z,100.00
2022-09-15T01:24:07.241Z,100.00
2022-09-15T01:26:42.903Z,100.00
2022-09-15T01:29:37.288Z,100.00
2022-09-15T01:32:53.219Z,100.00
2022-09-15T01:35:28.234Z,100.00
2022-09-15T01:38:30.671Z,100.00
2022-09-15T01:41:05.327Z,100.00
2022-09-15T01:43:36.055Z,100.00
2022-09-15T01:46:04.346Z,100.00
2022-09-15T01:48:32.953Z,100.00
2022-09-15T01:51:02.988Z,100.00
2022-09-15T01:53:30.063Z,100.00
2022-09-15T01:56:02.829Z,100.00
2022-09-15T01:58:29.425Z,100.00
2022-09-15T02:01:02.767Z,100.00
2022-09-15T02:03:39.247Z,100.00
2022-09-15T02:06:16.945Z,100.00
2022-09-15T02:09:12.664Z,100.00
2022-09-15T02:11:54.235Z,100.00
2022-09-15T02:14:35.258Z,100.00
2022-09-15T02:17:02.961Z,100.00
2022-09-15T02:19:31.607Z,100.00
2022-09-15T02:22:12.026Z,100.00
2022-09-15T02:24:44.106Z,100.00
2022-09-15T02:27:17.822Z,100.00
2022-09-15T02:29:47.892Z,100.00
2022-09-15T02:32:17.430Z,100.00
2022-09-15T02:34:47.828Z,100.00
2022-09-15T02:37:14.799Z,100.00
2022-09-15T02:39:47.381Z,100.00
2022-09-15T02:42:24.573Z,100.00
2022-09-15T02:44:51.408Z,100.00
2022-09-15T02:47:18.362Z,100.00
2022-09-15T02:49:45.017Z,100.00
2022-09-15T02:52:13.862Z,100.00
2022-09-15T02:54:40.390Z,100.00
2022-09-15T02:57:07.094Z,100.00
2022-09-15T02:59:52.300Z,100.00
2022-09-15T03:02:20.541Z,100.00
2022-09-15T03:04:48.452Z,100.00
2022-09-15T03:07:16.292Z,100.00
2022-09-15T03:09:42.821Z,100.00
2022-09-15T03:12:09.575Z,100.00
2022-09-15T03:14:36.429Z,100.00
2022-09-15T03:17:03.566Z,100.00
2022-09-15T03:19:31.006Z,100.00
2022-09-15T03:21:57.570Z,100.00
2022-09-15T03:24:24.129Z,100.00
2022-09-15T03:26:51.051Z,100.00
2022-09-15T03:29:17.562Z,100.00
2022-09-15T03:31:44.166Z,100.00
2022-09-15T03:34:10.807Z,100.00
2022-09-15T03:36:38.217Z,100.00
2022-09-15T03:39:04.720Z,100.00
2022-09-15T03:41:31.232Z,100.00
2022-09-15T03:43:57.821Z,100.00
2022-09-15T03:46:24.336Z,100.00
2022-09-15T03:48:51.247Z,100.00
2022-09-15T03:51:18.125Z,100.00
2022-09-15T03:53:44.745Z,100.00
2022-09-15T03:56:19.101Z,100.00
2022-09-15T03:58:45.685Z,100.00
2022-09-15T04:01:12.607Z,100.00
2022-09-15T04:03:45.260Z,100.00
2022-09-15T04:06:15.160Z,100.00
2022-09-15T04:08:43.942Z,100.00
2022-09-15T04:11:12.306Z,100.00
2022-09-15T04:13:40.615Z,100.00
2022-09-15T04:16:10.262Z,100.00
2022-09-15T04:18:37.008Z,100.00
2022-09-15T04:21:13.275Z,100.00
2022-09-15T04:23:41.017Z,100.00
2022-09-15T04:26:15.365Z,100.00
2022-09-15T04:28:41.855Z,100.00
2022-09-15T04:31:11.535Z,100.00
2022-09-15T04:33:40.121Z,100.00
2022-09-15T04:36:27.459Z,100.00
2022-09-15T04:38:55.326Z,100.00
2022-09-15T04:41:22.354Z,100.00
2022-09-15T04:43:49.252Z,100.00
2022-09-15T04:46:16.843Z,100.00
2022-09-15T04:48:45.537Z,100.00
2022-09-15T04:51:15.155Z,100.00
2022-09-15T04:53:42.084Z,100.00
2022-09-15T04:56:14.215Z,100.00
2022-09-15T04:58:46.432Z,100.00
2022-09-15T05:01:19.235Z,100.00
2022-09-15T05:03:46.509Z,100.00
2022-09-15T05:06:16.530Z,100.00
2022-09-15T05:08:43.504Z,100.00
2022-09-15T05:11:11.954Z,100.00
2022-09-15T05:13:40.215Z,100.00
2022-09-15T05:16:14.335Z,100.00
2022-09-15T05:18:42.261Z,100.00
2022-09-15T05:21:10.460Z,100.00
2022-09-15T05:23:37.796Z,100.00
2022-09-15T05:26:07.012Z,100.00
2022-09-15T05:28:35.295Z,100.00
2022-09-15T05:31:02.722Z,100.00
2022-09-15T05:33:29.257Z,100.00
2022-09-15T05:35:58.346Z,100.00
2022-09-15T05:38:25.781Z,100.00
2022-09-15T05:40:52.374Z,100.00
2022-09-15T05:43:19.109Z,100.00
2022-09-15T05:45:54.934Z,100.00
2022-09-15T05:48:21.756Z,100.00
2022-09-15T05:50:50.121Z,100.00
2022-09-15T05:53:16.842Z,100.00
2022-09-15T05:55:43.846Z,100.00
2022-09-15T05:58:10.973Z,100.00
2022-09-15T06:00:37.633Z,100.00
2022-09-15T06:03:04.495Z,100.00
2022-09-15T06:05:31.097Z,100.00
2022-09-15T06:07:57.626Z,100.00
2022-09-15T06:10:25.086Z,100.00
2022-09-15T06:12:54.974Z,100.00
2022-09-15T06:15:23.125Z,100.00
2022-09-15T06:17:49.799Z,100.00
2022-09-15T06:20:16.862Z,100.00
2022-09-15T06:22:43.359Z,100.00
2022-09-15T06:25:10.531Z,100.00
2022-09-15T06:27:37.102Z,100.00
2022-09-15T06:30:03.765Z,100.00
2022-09-15T06:32:30.380Z,100.00
2022-09-15T06:34:56.853Z,100.00
2022-09-15T06:37:23.338Z,100.00
2022-09-15T06:39:49.833Z,100.00
2022-09-15T06:42:16.596Z,100.00
2022-09-15T06:44:43.105Z,100.00
2022-09-15T06:47:10.501Z,100.00
2022-09-15T06:49:37.029Z,100.00
2022-09-15T06:52:05.108Z,100.00
2022-09-15T06:54:31.665Z,100.00
2022-09-15T06:56:58.374Z,100.00
2022-09-15T06:59:24.900Z,100.00
2022-09-15T07:01:55.432Z,100.00
2022-09-15T07:04:22.681Z,100.00
2022-09-15T07:06:50.479Z,100.00
2022-09-15T07:09:17.242Z,100.00
2022-09-15T07:11:45.207Z,100.00
2022-09-15T07:14:12.245Z,100.00
2022-09-15T07:16:39.351Z,100.00
2022-09-15T07:19:06.217Z,100.00
2022-09-15T07:21:33.396Z,100.00
2022-09-15T07:24:06.396Z,100.00
2022-09-15T07:26:34.143Z,100.00
2022-09-15T07:29:08.385Z,100.00
2022-09-15T07:31:37.925Z,100.00
2022-09-15T07:34:05.687Z,100.00
2022-09-15T07:36:32.710Z,100.00
2022-09-15T07:38:59.443Z,100.00
2022-09-15T07:41:30.935Z,100.00
2022-09-15T07:44:01.157Z,100.00
2022-09-15T07:46:31.202Z,100.00
2022-09-15T07:48:57.744Z,100.00
2022-09-15T07:51:26.161Z,100.00
2022-09-15T08:02:04.144Z,100.00
2022-09-15T08:08:47.698Z,100.00
2022-09-15T08:11:19.073Z,100.00
2022-09-15T08:17:44.528Z,100.00
2022-09-15T08:20:11.760Z,100.00
2022-09-15T08:29:55.160Z,100.00
2022-09-15T08:37:08.514Z,100.00
2022-09-15T08:39:34.975Z,100.00
2022-09-15T08:42:02.665Z,100.00
2022-09-15T08:48:16.030Z,100.00
2022-09-15T08:50:47.583Z,100.00
2022-09-15T08:58:02.528Z,100.00
2022-09-15T09:00:31.344Z,100.00
2022-09-15T09:10:46.916Z,100.00
2022-09-15T09:13:24.237Z,99.69
2022-09-15T09:16:15.887Z,95.35
2022-09-15T09:19:14.545Z,88.86
2022-09-15T09:21:57.255Z,85.48
2022-09-15T09:24:37.243Z,82.12
2022-09-15T09:27:04.242Z,79.39
2022-09-15T09:33:31.558Z,80.36
2022-09-15T09:43:59.840Z,75.51
2022-09-15T09:50:36.574Z,75.02
2022-09-15T09:57:13.523Z,74.57
2022-09-15T10:08:18.534Z,62.13
2022-09-15T10:15:40.712Z,61.46
2022-09-15T10:26:23.124Z,63.13
2022-09-15T10:29:52.499Z,66.45
2022-09-15T10:40:33.646Z,56.49
2022-09-15T10:43:32.459Z,54.56
2022-09-15T10:46:12.705Z,49.09
2022-09-15T10:49:03.275Z,48.54
2022-09-15T10:51:46.445Z,49.42
2022-09-15T10:54:41.596Z,50.19
2022-09-15T10:57:40.178Z,49.34
2022-09-15T11:15:16.340Z,62.50
2022-09-15T11:18:12.003Z,66.53
2022-09-15T11:24:58.524Z,59.69
2022-09-15T11:39:46.860Z,57.24
2022-09-15T11:46:07.358Z,59.30
2022-09-15T12:04:18.383Z,68.45
2022-09-15T12:06:57.091Z,74.95
2022-09-15T12:09:23.857Z,75.60
2022-09-15T12:11:57.174Z,76.42
2022-09-15T12:14:37.263Z,74.92
2022-09-15T12:17:09.806Z,72.49
2022-09-15T12:20:01.962Z,73.87
2022-09-15T12:22:43.588Z,72.68
2022-09-15T12:32:48.536Z,72.46
2022-09-15T12:35:17.805Z,72.71
2022-09-15T12:37:58.854Z,69.16
2022-09-15T12:40:25.598Z,71.09
2022-09-15T12:42:52.529Z,71.32
2022-09-15T12:45:29.348Z,74.84
2022-09-15T12:48:07.024Z,75.28
2022-09-15T12:50:39.699Z,79.54
2022-09-15T12:53:22.157Z,83.67
2022-09-15T12:55:58.524Z,87.67
2022-09-15T12:58:48.072Z,90.40
2022-09-15T13:01:23.657Z,90.77
2022-09-15T13:03:50.209Z,89.25
2022-09-15T13:06:19.263Z,90.72
2022-09-15T13:08:50.156Z,95.10
2022-09-15T13:11:25.810Z,98.69
2022-09-15T13:14:04.065Z,100.00
2022-09-15T13:16:59.585Z,97.44
2022-09-15T13:19:41.541Z,93.91
2022-09-15T13:22:10.968Z,94.81
2022-09-15T13:24:59.188Z,98.46
2022-09-15T13:27:48.251Z,100.00
2022-09-15T13:30:14.731Z,100.00
2022-09-15T13:33:07.811Z,100.00
2022-09-15T13:36:06.855Z,100.00
2022-09-15T13:38:55.640Z,100.00
2022-09-15T13:41:51.921Z,100.00
2022-09-15T13:44:21.505Z,100.00
2022-09-15T13:47:17.147Z,97.56
2022-09-15T13:50:12.016Z,94.13
2022-09-15T13:53:03.085Z,95.69
2022-09-15T13:55:36.755Z,98.26
2022-09-15T14:00:53.860Z,100.00
2022-09-15T14:03:45.949Z,100.00
2022-09-15T14:06:19.649Z,100.00
2022-09-15T14:08:52.137Z,100.00
2022-09-15T14:11:26.084Z,100.00
2022-09-15T14:13:55.127Z,100.00
2022-09-15T14:16:29.200Z,100.00
2022-09-15T14:18:58.436Z,100.00
2022-09-15T14:21:27.404Z,100.00
2022-09-15T14:23:55.993Z,100.00
2022-09-15T14:26:25.449Z,100.00
2022-09-15T14:29:04.024Z,100.00
2022-09-15T14:31:41.045Z,100.00
2022-09-15T14:34:16.398Z,100.00
2022-09-15T14:36:43.109Z,100.00
2022-09-15T14:39:12.305Z,100.00
2022-09-15T14:41:40.109Z,100.00
2022-09-15T14:47:25.372Z,100.00
2022-09-15T14:50:15.562Z,100.00
2022-09-15T14:53:10.227Z,100.00
2022-09-15T14:56:08.280Z,100.00
2022-09-15T14:58:52.724Z,100.00
2022-09-15T15:01:30.388Z,100.00
2022-09-15T15:04:20.031Z,100.00
2022-09-15T15:06:59.342Z,100.00
2022-09-15T15:09:34.874Z,100.00
2022-09-15T15:12:07.215Z,100.00
2022-09-15T15:14:35.696Z,100.00
2022-09-15T15:17:08.337Z,100.00
2022-09-15T15:19:41.169Z,100.00
2022-09-15T15:22:07.754Z,100.00
2022-09-15T15:24:34.291Z,100.00
2022-09-15T15:27:39.718Z,100.00
2022-09-15T15:30:26.702Z,100.00
2022-09-15T15:32:54.051Z,100.00
2022-09-15T15:35:21.214Z,100.00
2022-09-15T15:37:48.057Z,100.00
2022-09-15T15:40:18.609Z,100.00
2022-09-15T15:43:17.419Z,100.00
2022-09-15T15:45:58.217Z,100.00
2022-09-15T15:48:33.932Z,100.00
2022-09-15T15:51:04.654Z,100.00
2022-09-15T15:53:31.520Z,100.00
2022-09-15T15:55:59.558Z,100.00
2022-09-15T15:58:26.253Z,100.00
2022-09-15T16:00:56.367Z,100.00
2022-09-15T16:03:24.068Z,100.00
2022-09-15T16:05:53.342Z,100.00
2022-09-15T16:08:29.817Z,100.00
2022-09-15T16:10:57.423Z,100.00
2022-09-15T16:13:25.179Z,100.00
2022-09-15T16:16:00.179Z,100.00
2022-09-15T16:18:28.213Z,100.00
2022-09-15T16:20:54.749Z,100.00
2022-09-15T16:23:22.831Z,100.00
2022-09-15T16:25:52.517Z,100.00
2022-09-15T16:28:19.511Z,100.00
2022-09-15T16:30:46.749Z,100.00
2022-09-15T16:33:18.365Z,100.00
2022-09-15T16:35:54.989Z,100.00
2022-09-15T16:38:25.414Z,100.00
2022-09-15T16:40:52.122Z,100.00
2022-09-15T16:43:23.442Z,100.00
2022-09-15T16:45:51.462Z,100.00
2022-09-15T16:48:18.693Z,100.00
2022-09-15T16:51:01.207Z,100.00
2022-09-15T16:53:33.292Z,100.00
2022-09-15T16:55:59.790Z,100.00
2022-09-15T16:58:26.471Z,100.00
2022-09-15T17:00:53.627Z,100.00
2022-09-15T17:03:23.790Z,100.00
2022-09-15T17:05:55.612Z,100.00
2022-09-15T17:08:27.132Z,100.00
2022-09-15T17:11:04.934Z,100.00
2022-09-15T17:13:33.768Z,100.00
2022-09-15T17:16:01.556Z,100.00
2022-09-15T17:18:30.295Z,100.00
2022-09-15T17:20:57.609Z,100.00
2022-09-15T17:23:28.087Z,100.00
2022-09-15T17:25:59.741Z,100.00
2022-09-15T17:28:29.263Z,100.00
2022-09-15T17:31:04.970Z,100.00
2022-09-15T17:33:33.548Z,100.00
2022-09-15T17:36:00.475Z,100.00
2022-09-15T17:38:29.910Z,100.00
2022-09-15T17:40:56.725Z,100.00
2022-09-15T17:43:26.535Z,100.00
2022-09-15T17:45:53.940Z,100.00
2022-09-15T17:48:23.464Z,100.00
2022-09-15T17:50:50.488Z,100.00
2022-09-15T17:53:28.402Z,100.00
2022-09-15T17:55:55.602Z,100.00
2022-09-15T17:58:23.149Z,100.00
2022-09-15T18:00:50.382Z,100.00
2022-09-15T18:03:27.830Z,100.00
2022-09-15T18:05:59.468Z,100.00
2022-09-15T18:08:27.639Z,100.00
2022-09-15T18:10:54.688Z,100.00
2022-09-15T18:13:23.734Z,100.00
2022-09-15T18:15:50.537Z,100.00
2022-09-15T18:18:22.884Z,100.00
2022-09-15T18:20:51.176Z,100.00
2022-09-15T18:23:20.260Z,100.00
2022-09-15T18:25:48.042Z,100.00
2022-09-15T18:28:15.482Z,100.00
2022-09-15T18:30:44.262Z,100.00
2022-09-15T18:33:21.108Z,100.00
2022-09-15T18:35:49.710Z,100.00
2022-09-15T18:38:16.931Z,100.00
2022-09-15T18:40:55.234Z,100.00
2022-09-15T18:43:25.179Z,100.00
2022-09-15T18:45:53.233Z,100.00
2022-09-15T18:48:19.857Z,100.00
2022-09-15T18:50:46.478Z,100.00
2022-09-15T18:53:13.168Z,100.00
2022-09-15T18:55:42.502Z,100.00
2022-09-15T18:58:09.775Z,100.00
2022-09-15T19:00:36.653Z,100.00
2022-09-15T19:03:06.217Z,100.00
2022-09-15T19:05:33.261Z,100.00
2022-09-15T19:08:00.406Z,100.00
2022-09-15T19:10:27.205Z,100.00
2022-09-15T19:12:54.452Z,100.00
2022-09-15T19:15:23.734Z,100.00
2022-09-15T19:17:50.482Z,100.00
2022-09-15T19:20:17.296Z,100.00
2022-09-15T19:22:43.776Z,100.00
2022-09-15T19:25:11.394Z,100.00
2022-09-15T19:27:39.097Z,100.00
2022-09-15T19:30:07.340Z,100.00
2022-09-15T19:32:34.053Z,100.00
2022-09-15T19:35:00.584Z,100.00
2022-09-15T19:37:27.890Z,100.00
2022-09-15T19:39:54.863Z,100.00
2022-09-15T19:42:21.783Z,100.00
2022-09-15T19:44:49.422Z,100.00
2022-09-15T19:47:16.279Z,100.00
2022-09-15T19:49:42.913Z,100.00
2022-09-15T19:52:09.561Z,100.00
2022-09-15T19:54:36.330Z,100.00
2022-09-15T19:57:03.075Z,100.00
2022-09-15T19:59:31.515Z,100.00
2022-09-15T20:02:00.240Z,100.00
2022-09-15T20:04:27.749Z,100.00
2022-09-15T20:06:54.520Z,100.00
2022-09-15T20:09:21.041Z,100.00
2022-09-15T20:11:47.610Z,100.00
2022-09-15T20:14:14.956Z,100.00
2022-09-15T20:16:41.791Z,100.00
2022-09-15T20:19:09.147Z,100.00
2022-09-15T20:21:52.767Z,100.00
2022-09-15T20:24:20.597Z,100.00
2022-09-15T20:26:47.703Z,100.00
2022-09-15T20:29:14.489Z,100.00
2022-09-15T20:31:41.155Z,100.00
2022-09-15T20:34:07.800Z,100.00
2022-09-15T20:36:36.762Z,100.00
2022-09-15T20:39:05.592Z,100.00
2022-09-15T20:41:32.305Z,100.00
2022-09-15T20:44:00.195Z,100.00
2022-09-15T20:46:29.316Z,100.00
2022-09-15T20:48:55.850Z,100.00
2022-09-15T20:51:24.461Z,100.00
2022-09-15T20:53:53.880Z,100.00
2022-09-15T20:56:24.864Z,100.00
2022-09-15T20:58:52.961Z,100.00
2022-09-15T21:01:25.059Z,100.00
2022-09-15T21:03:52.061Z,100.00
2022-09-15T21:06:24.165Z,100.00
2022-09-15T21:08:50.687Z,100.00
2022-09-15T21:11:19.380Z,100.00
2022-09-15T21:13:47.159Z,100.00
2022-09-15T21:16:16.098Z,100.00
2022-09-15T21:18:43.661Z,100.00
2022-09-15T21:21:13.142Z,100.00
2022-09-15T21:23:42.720Z,100.00
2022-09-15T21:26:12.680Z,100.00
2022-09-15T21:28:39.258Z,100.00
2022-09-15T21:31:09.447Z,100.00
2022-09-15T21:33:36.950Z,100.00
2022-09-15T21:36:22.124Z,100.00
2022-09-15T21:38:51.044Z,100.00
2022-09-15T21:41:20.815Z,100.00
2022-09-15T21:43:48.443Z,100.00
2022-09-15T21:46:18.226Z,100.00
2022-09-15T21:48:47.322Z,100.00
2022-09-15T21:51:15.895Z,100.00
2022-09-15T21:53:43.460Z,100.00
2022-09-15T21:56:11.492Z,100.00
2022-09-15T21:58:42.944Z,100.00
2022-09-15T22:01:19.216Z,100.00
2022-09-15T22:04:07.229Z,100.00
2022-09-15T22:06:40.496Z,100.00
2022-09-15T22:09:14.450Z,100.00
2022-09-15T22:11:41.289Z,100.00
2022-09-15T22:14:08.749Z,100.00
2022-09-15T22:16:37.001Z,100.00
2022-09-15T22:19:05.413Z,100.00
2022-09-15T22:21:32.610Z,100.00
2022-09-15T22:23:59.613Z,100.00
2022-09-15T22:26:28.862Z,100.00
2022-09-15T22:28:56.015Z,100.00
2022-09-15T22:31:24.505Z,100.00
2022-09-15T22:33:51.922Z,100.00
2022-09-15T22:36:21.523Z,100.00
2022-09-15T22:38:49.848Z,100.00
2022-09-15T22:41:18.955Z,100.00
2022-09-15T22:43:47.975Z,100.00
2022-09-15T22:46:16.104Z,100.00
2022-09-15T22:48:43.714Z,100.00
2022-09-15T22:51:11.057Z,100.00
2022-09-15T22:53:37.670Z,100.00
2022-09-15T22:56:06.762Z,100.00
2022-09-15T22:58:34.609Z,100.00
2022-09-15T23:01:06.587Z,100.00
2022-09-15T23:03:33.601Z,100.00
2022-09-15T23:06:00.889Z,100.00
2022-09-15T23:08:28.143Z,100.00
2022-09-15T23:11:01.977Z,100.00
2022-09-15T23:13:28.467Z,100.00
2022-09-15T23:15:55.286Z,100.00
2022-09-15T23:18:21.792Z,100.00
2022-09-15T23:20:48.301Z,100.00
2022-09-15T23:23:14.775Z,100.00
2022-09-15T23:25:41.326Z,100.00
2022-09-15T23:28:07.805Z,100.00
2022-09-15T23:30:34.542Z,100.00
2022-09-15T23:33:01.069Z,100.00
2022-09-15T23:35:27.715Z,100.00
2022-09-15T23:37:54.251Z,100.00
2022-09-15T23:40:20.966Z,100.00
2022-09-15T23:42:47.533Z,100.00
2022-09-15T23:45:14.229Z,100.00
2022-09-15T23:47:40.819Z,100.00
2022-09-15T23:50:07.647Z,100.00
2022-09-15T23:52:34.151Z,100.00
2022-09-15T23:55:00.667Z,100.00
2022-09-15T23:57:28.314Z,100.00
2022-09-15T23:59:55.877Z,100.00
